Time;durP1;ratioP1;P1;durP2;ratioP2;P2;SDS_P1;SDS_P2;PMS_P1;PMS_P2;Temp;Humidity;BMP_temperature;BMP_pressure;BME280_temperature;BME280_humidity;BME280_pressure;Samples;Min_cycle;Max_cycle;Signal;HPM_P1;HPM_P2
2024/02/12 00:02:20;;;;;;;0.00;0.00;;;;;;;3.06;100.00;98642.63;6186557;23;20437;-76
2024/02/12 00:04:47;;;;;;;0.10;0.10;;;;;;;3.17;100.00;98667.84;6191714;23;20015;-76
2024/02/12 00:07:13;;;;;;;0.00;0.00;;;;;;;3.10;100.00;98667.25;6163734;23;20009;-76
2024/02/12 00:09:39;;;;;;;0.00;0.00;;;;;;;2.94;100.00;98650.94;6166596;23;20024;-76
2024/02/12 00:12:06;;;;;;;0.00;0.00;;;;;;;3.05;100.00;98675.31;6190002;23;20027;-77
2024/02/12 00:14:31;;;;;;;0.00;0.00;;;;;;;3.04;100.00;98674.50;6214226;23;20441;-76
2024/02/12 00:16:57;;;;;;;0.00;0.00;;;;;;;2.96;100.00;98672.28;6214413;23;20090;-75
2024/02/12 00:19:23;;;;;;;0.10;0.10;;;;;;;2.96;100.00;98666.88;6165549;23;20500;-77
2024/02/12 00:21:48;;;;;;;0.00;0.00;;;;;;;2.99;100.00;98677.16;6191548;23;20435;-77
2024/02/12 00:24:15;;;;;;;0.00;0.00;;;;;;;3.05;100.00;98686.94;6165214;23;20012;-76
2024/02/12 00:26:41;;;;;;;0.00;0.00;;;;;;;3.04;100.00;98689.88;6190033;23;20005;-77
2024/02/12 00:29:13;;;;;;;0.10;0.10;;;;;;;3.08;100.00;98699.09;6215532;23;20000;-74
2024/02/12 00:31:39;;;;;;;0.00;0.00;;;;;;;3.11;100.00;98690.47;6218270;23;20086;-76
2024/02/12 00:34:04;;;;;;;0.00;0.00;;;;;;;3.08;100.00;98685.59;6140418;23;20012;-76
2024/02/12 00:36:30;;;;;;;0.00;0.00;;;;;;;3.01;100.00;98685.00;6160976;23;20108;-75
2024/02/12 00:38:55;;;;;;;0.00;0.00;;;;;;;2.96;100.00;98685.78;6218189;23;20008;-75
2024/02/12 00:41:22;;;;;;;0.00;0.00;;;;;;;2.94;100.00;98696.84;6218572;23;20012;-76
2024/02/12 00:43:47;;;;;;;0.10;0.10;;;;;;;2.91;100.00;98681.16;6167839;23;20312;-76
2024/02/12 00:46:15;;;;;;;0.00;0.00;;;;;;;2.89;100.00;98693.28;6191435;23;19996;-76
2024/02/12 00:48:42;;;;;;;0.00;0.00;;;;;;;2.77;100.00;98685.34;6220513;23;20012;-76
2024/02/12 00:51:10;;;;;;;0.00;0.00;;;;;;;2.79;100.00;98685.94;6219149;23;20065;-78
2024/02/12 00:53:40;;;;;;;0.00;0.00;;;;;;;2.69;100.00;98694.75;6217573;23;20012;-77
2024/02/12 00:56:06;;;;;;;0.10;0.10;;;;;;;2.65;100.00;98687.44;6218325;23;20013;-76
2024/02/12 00:58:33;;;;;;;0.10;0.10;;;;;;;2.67;100.00;98688.78;6191131;23;20009;-76
2024/02/12 01:00:59;;;;;;;0.10;0.10;;;;;;;2.65;100.00;98690.13;6192564;23;20371;-76
2024/02/12 01:03:25;;;;;;;0.08;0.08;;;;;;;2.68;100.00;98687.72;6164189;23;20043;-76
2024/02/12 01:05:51;;;;;;;0.00;0.00;;;;;;;2.70;100.00;98700.94;6193455;23;20000;-75
2024/02/12 01:08:16;;;;;;;0.10;0.10;;;;;;;2.71;100.00;98703.41;6174608;23;20376;-76
2024/02/12 01:10:42;;;;;;;0.00;0.00;;;;;;;2.70;100.00;98707.19;6197917;23;20029;-74
2024/02/12 01:13:08;;;;;;;0.00;0.00;;;;;;;2.57;100.00;98697.63;6173884;23;20016;-75
2024/02/12 01:15:34;;;;;;;0.00;0.00;;;;;;;2.59;100.00;98706.25;6220658;23;20050;-76
2024/02/12 01:17:59;;;;;;;0.00;0.00;;;;;;;2.42;100.00;98687.50;6196702;23;20008;-75
2024/02/12 01:20:31;;;;;;;0.00;0.00;;;;;;;2.42;100.00;98705.56;6165950;23;20008;-77
2024/02/12 01:22:57;;;;;;;0.00;0.00;;;;;;;2.47;100.00;98713.72;6170333;23;20016;-76
2024/02/12 01:25:23;;;;;;;0.00;0.00;;;;;;;2.35;100.00;98694.16;6217273;23;20012;-75
2024/02/12 01:27:48;;;;;;;0.00;0.00;;;;;;;2.33;100.00;98710.59;6195237;23;20030;-76
2024/02/12 01:30:14;;;;;;;0.00;0.00;;;;;;;2.27;100.00;98712.41;6187781;23;20059;-78
2024/02/12 01:32:39;;;;;;;0.10;0.10;;;;;;;2.32;100.00;98721.63;6187939;23;20063;-76
2024/02/12 01:35:05;;;;;;;0.00;0.00;;;;;;;2.36;100.00;98728.16;6187438;23;20020;-76
2024/02/12 01:37:32;;;;;;;0.00;0.00;;;;;;;2.36;100.00;98744.34;6191501;23;20051;-77
2024/02/12 01:39:58;;;;;;;0.00;0.00;;;;;;;2.20;100.00;98709.09;6218089;23;20012;-76
2024/02/12 01:42:24;;;;;;;0.00;0.00;;;;;;;2.33;100.00;98734.88;6219816;23;20011;-77
2024/02/12 01:45:02;;;;;;;0.10;0.10;;;;;;;2.23;100.00;98724.81;6191889;23;20004;-76
2024/02/12 01:47:28;;;;;;;0.00;0.00;;;;;;;2.29;100.00;98728.34;6194702;23;20023;-78
2024/02/12 01:49:57;;;;;;;0.00;0.00;;;;;;;2.29;100.00;98730.22;6166847;23;20032;-76
2024/02/12 01:52:24;;;;;;;0.10;0.10;;;;;;;2.23;100.00;98735.59;6215813;23;20012;-74
2024/02/12 01:54:52;;;;;;;0.10;0.10;;;;;;;2.25;100.00;98743.44;6164099;23;20068;-76
2024/02/12 01:57:18;;;;;;;0.10;0.10;;;;;;;2.21;100.00;98748.50;6189687;23;20009;-77
2024/02/12 01:59:43;;;;;;;0.00;0.00;;;;;;;2.32;100.00;98748.59;6216031;23;20080;-76
2024/02/12 02:02:14;;;;;;;0.00;0.00;;;;;;;2.34;100.00;98757.28;6186978;23;20000;-76
2024/02/12 02:04:41;;;;;;;0.10;0.10;;;;;;;2.22;100.00;98739.34;6216889;23;20012;-77
2024/02/12 02:07:19;;;;;;;0.00;0.00;;;;;;;2.29;100.00;98763.41;6211365;23;20005;-76
2024/02/12 02:09:48;;;;;;;0.10;0.10;;;;;;;2.18;100.00;98748.19;6188796;23;20040;-76
2024/02/12 02:12:15;;;;;;;0.00;0.00;;;;;;;2.24;100.00;98761.47;6211268;23;20880;-77
2024/02/12 02:14:45;;;;;;;0.00;0.00;;;;;;;2.11;100.00;98748.38;6217843;23;20005;-76
2024/02/12 02:17:12;;;;;;;0.00;0.00;;;;;;;2.22;100.00;98769.00;6163792;23;20442;-77
2024/02/12 02:19:38;;;;;;;0.10;0.10;;;;;;;2.22;100.00;98765.47;6214102;23;20037;-77
2024/02/12 02:22:04;;;;;;;0.00;0.00;;;;;;;2.21;100.00;98764.69;6214789;23;20016;-76
2024/02/12 02:24:30;;;;;;;0.10;0.10;;;;;;;2.32;100.00;98768.28;6212082;23;20012;-76
2024/02/12 02:26:55;;;;;;;0.00;0.00;;;;;;;2.36;100.00;98747.03;6187708;23;20045;-76
2024/02/12 02:29:21;;;;;;;0.10;0.10;;;;;;;2.54;100.00;98756.66;6188462;23;20019;-75
2024/02/12 02:31:47;;;;;;;0.00;0.00;;;;;;;2.62;100.00;98754.31;6211556;23;20008;-75
2024/02/12 02:34:13;;;;;;;0.10;0.10;;;;;;;2.79;100.00;98765.03;6213887;23;20005;-76
2024/02/12 02:36:38;;;;;;;0.10;0.10;;;;;;;2.93;100.00;98757.31;6185038;23;20061;-76
2024/02/12 02:39:06;;;;;;;0.00;0.00;;;;;;;3.05;100.00;98750.94;6189834;23;20386;-75
2024/02/12 02:41:33;;;;;;;0.10;0.10;;;;;;;3.21;100.00;98755.38;6137285;23;20028;-75
2024/02/12 02:43:58;;;;;;;0.00;0.00;;;;;;;3.29;100.00;98757.59;6185988;23;20012;-76
2024/02/12 02:46:26;;;;;;;0.00;0.00;;;;;;;3.35;100.00;98754.97;6190633;23;20011;-76
2024/02/12 02:48:55;;;;;;;0.10;0.10;;;;;;;3.39;100.00;98750.63;6210887;23;20008;-75
2024/02/12 02:51:29;;;;;;;0.10;0.10;;;;;;;3.40;100.00;98747.72;6190185;23;20107;-75
2024/02/12 02:53:55;;;;;;;0.00;0.00;;;;;;;3.48;100.00;98760.72;6185049;23;20475;-75
2024/02/12 02:56:22;;;;;;;0.10;0.10;;;;;;;3.55;100.00;98762.38;6190465;23;20009;-77
2024/02/12 02:58:50;;;;;;;0.00;0.00;;;;;;;3.57;100.00;98752.13;6214534;23;20008;-75
2024/02/12 03:01:20;;;;;;;0.00;0.00;;;;;;;3.64;100.00;98755.41;6163989;23;20072;-75
2024/02/12 03:03:50;;;;;;;0.00;0.00;;;;;;;3.72;100.00;98762.22;6189976;23;20008;-75
2024/02/12 03:06:21;;;;;;;0.00;0.00;;;;;;;3.75;100.00;98750.88;6213284;23;20007;-76
2024/02/12 03:08:50;;;;;;;0.00;0.00;;;;;;;3.82;100.00;98754.97;6190650;23;20012;-76
2024/02/12 03:11:19;;;;;;;0.00;0.00;;;;;;;3.85;100.00;98759.03;6216636;23;19996;-76
2024/02/12 03:13:45;;;;;;;0.10;0.10;;;;;;;3.88;100.00;98758.50;6187012;23;20347;-77
2024/02/12 03:16:29;;;;;;;0.00;0.00;;;;;;;3.86;100.00;98744.44;6214399;23;20001;-76
2024/02/12 03:18:55;;;;;;;0.00;0.00;;;;;;;3.85;100.00;98732.00;6213708;23;20017;-77
2024/02/12 03:21:23;;;;;;;0.00;0.00;;;;;;;3.87;100.00;98745.25;6213713;23;20831;-75
2024/02/12 03:23:48;;;;;;;0.00;0.00;;;;;;;3.82;100.00;98749.56;6185618;23;20013;-76
2024/02/12 03:26:15;;;;;;;0.10;0.10;;;;;;;3.88;100.00;98763.91;6186993;23;20024;-76
2024/02/12 03:28:41;;;;;;;0.00;0.00;;;;;;;3.83;100.00;98761.19;6182905;23;20013;-76
2024/02/12 03:31:08;;;;;;;0.00;0.00;;;;;;;3.79;100.00;98755.50;6188334;23;20431;-75
2024/02/12 03:33:33;;;;;;;0.00;0.00;;;;;;;3.75;100.00;98758.97;6214275;23;20387;-76
2024/02/12 03:36:00;;;;;;;0.00;0.00;;;;;;;3.77;100.00;98762.25;6214868;23;20004;-76
2024/02/12 03:38:26;;;;;;;0.00;0.00;;;;;;;3.84;100.00;98768.22;6214670;23;20004;-78
2024/02/12 03:40:54;;;;;;;0.10;0.10;;;;;;;3.89;100.00;98773.66;6214838;23;20356;-76
2024/02/12 03:43:24;;;;;;;0.00;0.00;;;;;;;3.91;100.00;98768.78;6166646;23;20007;-76
2024/02/12 03:45:55;;;;;;;0.00;0.00;;;;;;;3.96;100.00;98785.06;6212314;23;20062;-75
2024/02/12 04:02:01;;;;;;;0.00;0.00;;;;;;;3.79;100.00;98776.31;6193565;23;20233;-76
2024/02/12 04:04:27;;;;;;;0.10;0.10;;;;;;;3.70;100.00;98772.50;6163891;23;20415;-76
2024/02/12 04:06:52;;;;;;;0.10;0.10;;;;;;;3.65;100.00;98776.78;6189143;23;20463;-75
2024/02/12 04:09:18;;;;;;;0.00;0.00;;;;;;;3.60;100.00;98778.63;6162329;23;20136;-75
2024/02/12 04:11:43;;;;;;;0.10;0.10;;;;;;;3.48;100.00;98781.53;6187439;23;20024;-76
2024/02/12 04:14:09;;;;;;;0.00;0.00;;;;;;;3.26;100.00;98768.94;6189144;23;20012;-76
2024/02/12 04:16:46;;;;;;;0.08;0.08;;;;;;;3.21;100.00;98771.59;6185584;23;20078;-75
2024/02/12 04:19:11;;;;;;;0.10;0.10;;;;;;;3.14;100.00;98771.00;6188838;23;20047;-75
2024/02/12 04:21:37;;;;;;;0.00;0.00;;;;;;;3.12;100.00;98773.13;6186078;23;20005;-77
2024/02/12 04:24:04;;;;;;;0.00;0.00;;;;;;;3.11;100.00;98785.00;6141803;23;20424;-76
2024/02/12 04:26:37;;;;;;;0.10;0.10;;;;;;;3.07;100.00;98792.81;6213551;23;20001;-77
2024/02/12 04:29:05;;;;;;;0.00;0.00;;;;;;;2.88;100.00;98778.88;6189014;23;20423;-77
2024/02/12 04:31:40;;;;;;;0.10;0.10;;;;;;;2.85;100.00;98803.69;6161571;23;20015;-76
2024/02/12 04:34:07;;;;;;;;;;;;;;;2.67;100.00;98806.72;6188943;23;20017;-77
2024/02/12 04:36:38;;;;;;;0.00;0.00;;;;;;;2.49;100.00;98808.69;6215205;23;19994;-76
2024/02/12 04:39:04;;;;;;;0.00;0.00;;;;;;;2.36;100.00;98814.50;6214932;23;20005;-76
2024/02/12 04:41:29;;;;;;;0.10;0.10;;;;;;;2.36;100.00;98819.88;6214445;23;20005;-75
2024/02/12 04:43:55;;;;;;;0.00;0.00;;;;;;;2.44;100.00;98816.75;6162241;23;20012;-75
2024/02/12 04:46:20;;;;;;;0.10;0.10;;;;;;;2.40;100.00;98807.53;6187795;23;20009;-76
2024/02/12 04:48:46;;;;;;;0.00;0.00;;;;;;;2.39;100.00;98808.59;6162183;23;20027;-77
2024/02/12 04:51:11;;;;;;;0.00;0.00;;;;;;;2.41;100.00;98811.84;6190671;23;20374;-78
2024/02/12 04:53:38;;;;;;;0.00;0.00;;;;;;;2.34;100.00;98817.44;6188136;23;20420;-77
2024/02/12 04:56:06;;;;;;;0.00;0.00;;;;;;;2.31;100.00;98823.34;6191503;23;20102;-78
2024/02/12 04:58:32;;;;;;;0.00;0.00;;;;;;;2.25;100.00;98827.03;6188665;23;20142;-77
2024/02/12 05:00:57;;;;;;;0.00;0.00;;;;;;;2.14;100.00;98831.47;6189235;23;20081;-77
2024/02/12 05:03:23;;;;;;;0.00;0.00;;;;;;;2.02;100.00;98831.59;6188984;23;20024;-76
2024/02/12 05:05:49;;;;;;;0.00;0.00;;;;;;;2.01;100.00;98839.94;6188833;23;20000;-76
2024/02/12 05:08:16;;;;;;;0.00;0.00;;;;;;;1.90;100.00;98829.00;6214344;23;20012;-76
2024/02/12 05:10:42;;;;;;;0.00;0.00;;;;;;;1.89;100.00;98840.84;6162083;23;20467;-77
2024/02/12 05:13:10;;;;;;;0.10;0.10;;;;;;;2.02;100.00;98852.34;6215372;23;20495;-75
2024/02/12 05:15:35;;;;;;;0.10;0.10;;;;;;;2.03;100.00;98851.28;6188585;23;20016;-76
2024/02/12 05:22:32;;;;;;;0.00;0.00;;;;;;;2.12;100.00;98863.28;6189271;23;20331;-76
2024/02/12 05:23:37;;;;;;;0.10;0.10;;;;;;;2.24;100.00;98863.97;6188962;23;20016;-75
2024/02/12 05:26:04;;;;;;;0.10;0.10;;;;;;;2.31;100.00;98866.50;6185760;23;19997;-76
2024/02/12 05:28:30;;;;;;;0.10;0.10;;;;;;;2.32;100.00;98875.41;6187487;23;20013;-76
2024/02/12 05:30:55;;;;;;;0.10;0.10;;;;;;;2.26;100.00;98874.50;6216735;23;20028;-77
2024/02/12 05:33:21;;;;;;;0.00;0.00;;;;;;;2.26;100.00;98886.13;6163104;23;20032;-77
2024/02/12 05:35:46;;;;;;;0.10;0.10;;;;;;;2.18;100.00;98883.84;6213872;23;20009;-78
2024/02/12 05:38:12;;;;;;;0.00;0.00;;;;;;;2.12;100.00;98884.84;6211084;23;20009;-76
2024/02/12 05:40:37;;;;;;;0.10;0.10;;;;;;;2.05;100.00;98868.03;6160667;23;20009;-77
2024/02/12 05:43:03;;;;;;;0.10;0.10;;;;;;;2.27;100.00;98887.75;6212238;23;20062;-77
2024/02/12 05:45:30;;;;;;;0.10;0.10;;;;;;;2.36;100.00;98895.41;6163239;23;20019;-76
2024/02/12 05:47:56;;;;;;;0.00;0.00;;;;;;;2.38;100.00;98893.28;6189028;23;20067;-76
2024/02/12 05:50:21;;;;;;;0.00;0.00;;;;;;;2.35;100.00;98886.53;6137605;23;20032;-77
2024/02/12 05:52:47;;;;;;;0.00;0.00;;;;;;;2.33;100.00;98890.53;6164300;23;20347;-77
2024/02/12 05:55:13;;;;;;;0.00;0.00;;;;;;;2.34;100.00;98897.56;6165818;23;20434;-77
2024/02/12 05:57:41;;;;;;;0.10;0.10;;;;;;;2.25;100.00;98895.28;6188031;23;20475;-76
2024/02/12 06:00:07;;;;;;;0.10;0.10;;;;;;;2.08;100.00;98879.13;6189221;23;20408;-77
2024/02/12 06:02:34;;;;;;;0.00;0.00;;;;;;;1.97;100.00;98876.53;6188644;23;20080;-77
2024/02/12 06:05:04;;;;;;;0.00;0.00;;;;;;;2.01;100.00;98896.56;6190341;23;19993;-77
2024/02/12 06:07:47;;;;;;;0.00;0.00;;;;;;;1.83;100.00;98898.44;6165041;23;20006;-77
2024/02/12 06:10:20;;;;;;;0.10;0.10;;;;;;;1.96;100.00;98902.69;6163865;23;20001;-78
2024/02/12 06:12:46;;;;;;;0.10;0.10;;;;;;;2.09;100.00;98915.03;6183796;23;19997;-77
2024/02/12 06:15:11;;;;;;;0.10;0.10;;;;;;;1.99;100.00;98906.78;6181843;23;20016;-75
2024/02/12 06:17:37;;;;;;;0.00;0.00;;;;;;;2.03;100.00;98918.69;6162387;23;20069;-76
2024/02/12 06:20:06;;;;;;;0.00;0.00;;;;;;;2.01;100.00;98905.44;6187203;23;20368;-76
2024/02/12 06:22:32;;;;;;;0.10;0.10;;;;;;;2.06;100.00;98896.63;6162997;23;20087;-79
2024/02/12 06:24:58;;;;;;;0.00;0.00;;;;;;;2.20;100.00;98924.88;6216301;23;21026;-75
2024/02/12 06:27:23;;;;;;;0.00;0.00;;;;;;;2.08;100.00;98934.94;6189904;23;20493;-74
2024/02/12 06:29:49;;;;;;;0.00;0.00;;;;;;;1.97;100.00;98933.16;6213192;23;20012;-75
2024/02/12 06:32:15;;;;;;;0.10;0.10;;;;;;;1.96;100.00;98939.59;6162753;23;20094;-75
2024/02/12 06:34:44;;;;;;;0.10;0.10;;;;;;;1.96;100.00;98951.22;6214790;23;20005;-74
2024/02/12 06:37:11;;;;;;;0.10;0.10;;;;;;;2.03;100.00;98941.09;6214637;23;20015;-75
2024/02/12 06:39:37;;;;;;;0.10;0.10;;;;;;;2.09;100.00;98939.28;6187305;23;20008;-74
2024/02/12 06:42:03;;;;;;;0.00;0.00;;;;;;;2.17;100.00;98946.13;6162247;23;20131;-74
2024/02/12 06:44:29;;;;;;;0.10;0.10;;;;;;;2.18;100.00;98959.38;6215288;23;20005;-75
2024/02/12 06:46:55;;;;;;;0.10;0.10;;;;;;;2.23;100.00;98959.47;6165805;23;20024;-75
2024/02/12 06:49:21;;;;;;;0.10;0.10;;;;;;;2.35;100.00;98964.75;6190440;23;20012;-75
2024/02/12 06:51:47;;;;;;;0.00;0.00;;;;;;;2.38;100.00;98968.81;6216553;23;20058;-76
2024/02/12 06:54:13;;;;;;;0.00;0.00;;;;;;;2.41;100.00;98963.75;6163993;23;20052;-75
2024/02/12 06:56:41;;;;;;;0.00;0.00;;;;;;;2.51;100.00;98976.59;6167940;23;20066;-76
2024/02/12 06:59:09;;;;;;;0.00;0.00;;;;;;;2.51;100.00;98979.28;6186492;23;20431;-76
2024/02/12 07:01:36;;;;;;;0.00;0.00;;;;;;;2.50;100.00;98977.66;6210938;23;20011;-71
2024/02/12 07:04:02;;;;;;;0.10;0.10;;;;;;;2.44;100.00;98984.03;6161139;23;20344;-72
2024/02/12 07:06:28;;;;;;;0.00;0.00;;;;;;;2.33;100.00;98993.03;6184385;23;20001;-72
2024/02/12 07:08:56;;;;;;;0.00;0.00;;;;;;;2.19;100.00;98998.78;6186482;23;20004;-73
2024/02/12 07:11:22;;;;;;;0.00;0.00;;;;;;;2.01;100.00;98988.22;6131507;23;20013;-73
2024/02/12 07:13:47;;;;;;;0.00;0.00;;;;;;;2.01;100.00;99001.72;6134436;23;20135;-72
2024/02/12 07:16:19;;;;;;;0.00;0.00;;;;;;;1.75;100.00;98974.31;6185712;23;20009;-74
2024/02/12 07:18:47;;;;;;;0.00;0.00;;;;;;;1.84;100.00;99007.06;6210276;23;20372;-73
2024/02/12 07:21:13;;;;;;;0.10;0.10;;;;;;;1.78;100.00;99022.34;6160726;23;20015;-74
2024/02/12 07:23:40;;;;;;;0.10;0.10;;;;;;;1.70;100.00;99028.13;6186703;23;20091;-72
2024/02/12 07:26:07;;;;;;;0.10;0.10;;;;;;;1.65;100.00;99026.19;6185120;23;20023;-73
2024/02/12 07:28:35;;;;;;;0.00;0.00;;;;;;;1.63;100.00;99036.38;6187077;23;20091;-73
2024/02/12 07:31:00;;;;;;;0.00;0.00;;;;;;;1.64;100.00;99035.31;6133670;23;20389;-73
2024/02/12 07:33:26;;;;;;;0.10;0.10;;;;;;;1.76;100.00;99043.34;6184837;23;20015;-73
2024/02/12 07:35:55;;;;;;;0.00;0.00;;;;;;;1.81;100.00;99046.13;6187391;23;20019;-76
2024/02/12 07:38:21;;;;;;;0.00;0.00;;;;;;;1.90;100.00;99050.06;6160726;23;20094;-76
2024/02/12 07:40:47;;;;;;;0.10;0.10;;;;;;;1.99;100.00;99069.38;6212639;23;20013;-75
2024/02/12 07:43:15;;;;;;;0.10;0.10;;;;;;;2.08;100.00;99046.31;6210053;23;20000;-76
2024/02/12 07:45:42;;;;;;;0.00;0.00;;;;;;;2.27;100.00;99067.69;6211415;23;20016;-75
2024/02/12 07:48:08;;;;;;;0.00;0.00;;;;;;;2.44;100.00;99076.59;6163026;23;20100;-76
2024/02/12 07:50:35;;;;;;;0.03;0.03;;;;;;;2.49;100.00;99070.44;6160732;23;20148;-77
2024/02/12 07:53:00;;;;;;;0.10;0.10;;;;;;;2.53;100.00;99076.19;6164136;23;20024;-76
2024/02/12 07:55:26;;;;;;;0.00;0.00;;;;;;;2.64;100.00;99099.56;6185535;23;20107;-75
2024/02/12 07:57:51;;;;;;;0.00;0.00;;;;;;;2.67;100.00;99100.94;6214927;23;20023;-76
2024/02/12 08:00:20;;;;;;;0.10;0.10;;;;;;;2.71;100.00;99110.19;6160188;23;20004;-75
2024/02/12 08:02:48;;;;;;;0.10;0.10;;;;;;;2.73;100.00;99113.44;6165467;23;20024;-77
2024/02/12 08:05:15;;;;;;;0.00;0.00;;;;;;;2.67;100.00;99109.03;6136612;23;20016;-77
2024/02/12 08:07:40;;;;;;;0.10;0.10;;;;;;;2.73;100.00;99124.25;6162643;23;19993;-76
2024/02/12 08:10:10;;;;;;;0.10;0.10;;;;;;;2.83;100.00;99135.22;6213680;23;20074;-77
2024/02/12 08:12:36;;;;;;;0.00;0.00;;;;;;;2.75;100.00;99130.25;6210789;23;20017;-76
2024/02/12 08:15:06;;;;;;;0.00;0.00;;;;;;;2.72;100.00;99141.53;6162986;23;20423;-75
2024/02/12 08:17:31;;;;;;;0.00;0.00;;;;;;;2.69;100.00;99158.22;6207955;23;20566;-75
2024/02/12 08:19:57;;;;;;;0.00;0.00;;;;;;;2.73;100.00;99154.78;6138540;23;20008;-77
2024/02/12 08:22:22;;;;;;;0.00;0.00;;;;;;;2.83;100.00;99156.81;6186124;23;20428;-76
2024/02/12 08:24:51;;;;;;;0.00;0.00;;;;;;;2.93;100.00;99154.25;6214338;23;20398;-76
2024/02/12 08:27:18;;;;;;;0.00;0.00;;;;;;;3.04;100.00;99149.00;6166818;23;20051;-76
2024/02/12 08:29:44;;;;;;;0.10;0.10;;;;;;;3.15;100.00;99158.91;6189002;23;20008;-76
2024/02/12 08:32:11;;;;;;;0.00;0.00;;;;;;;3.08;100.00;99150.16;6191952;23;20004;-77
2024/02/12 08:34:40;;;;;;;0.00;0.00;;;;;;;3.08;100.00;99145.59;6210868;23;20016;-75
2024/02/12 08:37:08;;;;;;;0.00;0.00;;;;;;;3.24;100.00;99165.53;6191330;23;20000;-76
2024/02/12 08:40:14;;;;;;;0.00;0.00;;;;;;;3.34;100.00;99180.25;6214851;23;20427;-75
2024/02/12 08:42:45;;;;;;;0.00;0.00;;;;;;;3.30;100.00;99167.25;6132593;23;20367;-73
2024/02/12 08:45:13;;;;;;;0.00;0.00;;;;;;;4.11;100.00;99170.41;6213102;23;20011;-74
2024/02/12 08:47:49;;;;;;;0.00;0.00;;;;;;;6.61;100.00;99155.03;6190908;23;20012;-73
2024/02/12 08:50:15;;;;;;;0.10;0.10;;;;;;;9.46;97.81;99189.63;6163916;23;20062;-74
2024/02/12 08:52:41;;;;;;;0.00;0.00;;;;;;;11.44;81.04;99190.13;6191163;23;20032;-75
2024/02/12 08:55:10;;;;;;;0.10;0.10;;;;;;;12.95;71.02;99198.47;6215330;23;20391;-75
2024/02/12 08:57:43;;;;;;;0.00;0.00;;;;;;;14.01;62.91;99206.16;6187220;23;20039;-73
2024/02/12 09:00:24;;;;;;;0.00;0.00;;;;;;;14.44;58.52;99208.19;6165886;23;20008;-73
2024/02/12 09:02:49;;;;;;;0.00;0.00;;;;;;;14.68;55.87;99212.44;6185417;23;20062;-73
2024/02/12 09:05:15;;;;;;;0.10;0.10;;;;;;;14.79;54.24;99207.44;6215612;23;20012;-74
2024/02/12 09:07:41;;;;;;;0.00;0.00;;;;;;;14.92;52.67;99217.50;6191994;23;19996;-74
2024/02/12 09:10:24;;;;;;;0.00;0.00;;;;;;;15.33;52.29;99229.06;6187490;23;20025;-73
2024/02/12 09:12:51;;;;;;;0.00;0.00;;;;;;;15.75;50.50;99248.56;6216958;23;20055;-75
2024/02/12 09:15:16;;;;;;;0.10;0.10;;;;;;;16.31;49.59;99247.72;6138250;23;20403;-75
2024/02/12 09:17:44;;;;;;;0.00;0.00;;;;;;;16.31;46.19;99253.22;6189077;23;20015;-71
2024/02/12 09:20:13;;;;;;;0.10;0.10;;;;;;;16.31;46.43;99242.19;6190903;23;20035;-72
2024/02/12 09:22:39;;;;;;;0.00;0.00;;;;;;;17.04;44.68;99268.66;6214575;23;20028;-72
2024/02/12 09:25:04;;;;;;;0.00;0.00;;;;;;;17.45;43.33;99250.44;6188097;23;20035;-72
2024/02/12 09:27:30;;;;;;;0.10;0.10;;;;;;;18.07;42.62;99283.78;6214793;23;19999;-74
2024/02/12 09:29:57;;;;;;;0.00;0.00;;;;;;;18.84;41.25;99280.28;6188160;23;20092;-72
2024/02/12 09:32:26;;;;;;;0.00;0.00;;;;;;;19.65;39.58;99280.19;6209181;23;20012;-72
2024/02/12 09:34:55;;;;;;;0.10;0.10;;;;;;;20.58;37.56;99283.72;6212829;23;20008;-73
2024/02/12 09:37:21;;;;;;;0.00;0.00;;;;;;;21.21;36.51;99282.75;6160730;23;20016;-72
2024/02/12 09:39:47;;;;;;;0.00;0.00;;;;;;;21.26;35.36;99281.63;6183733;23;20008;-72
2024/02/12 09:42:16;;;;;;;0.00;0.00;;;;;;;21.04;35.18;99266.50;6156891;23;20005;-72
2024/02/12 09:44:46;;;;;;;0.00;0.00;;;;;;;22.10;33.77;99296.75;6160303;23;20035;-73
2024/02/12 09:47:26;;;;;;;;;;;;;;;;;;;;;
2024/02/12 09:49:53;;;;;;;0.00;0.00;;;;;;;23.20;31.17;99313.97;6210209;23;20398;-71
2024/02/12 09:52:20;;;;;;;0.00;0.00;;;;;;;23.79;31.92;99337.41;6185134;23;20482;-73
2024/02/12 09:54:46;;;;;;;0.00;0.00;;;;;;;24.17;30.43;99329.81;6210623;23;20036;-72
2024/02/12 09:57:11;;;;;;;0.00;0.00;;;;;;;24.69;30.15;99334.66;6185018;23;20054;-72
2024/02/12 09:59:39;;;;;;;0.00;0.00;;;;;;;24.74;28.52;99335.09;6159133;23;20004;-72
2024/02/12 10:02:09;;;;;;;0.03;0.03;;;;;;;23.80;28.57;99332.59;6186180;23;20168;-72
2024/02/12 10:04:38;;;;;;;0.00;0.00;;;;;;;24.34;28.62;99345.16;6186764;23;20003;-72
2024/02/12 10:07:05;;;;;;;0.00;0.00;;;;;;;25.02;28.45;99328.06;6213185;23;20028;-71
2024/02/12 10:09:34;;;;;;;0.00;0.00;;;;;;;25.63;27.88;99337.97;6185097;23;20040;-71
2024/02/12 10:12:12;;;;;;;0.00;0.00;;;;;;;26.05;26.21;99334.50;6188948;23;20040;-73
2024/02/12 10:14:47;;;;;;;0.00;0.00;;;;;;;25.46;25.13;99331.91;6182552;23;20009;-73
2024/02/12 10:17:13;;;;;;;0.00;0.00;;;;;;;25.19;25.89;99337.75;6213115;23;20008;-72
2024/02/12 10:19:52;;;;;;;0.00;0.00;;;;;;;25.69;26.11;99365.19;6190035;23;20012;-73
2024/02/12 10:22:36;;;;;;;0.00;0.00;;;;;;;25.34;24.77;99344.25;6163290;23;20032;-71
2024/02/12 10:25:01;;;;;;;0.00;0.00;;;;;;;25.34;25.48;99365.84;6181716;23;20012;-72
2024/02/12 10:27:30;;;;;;;0.00;0.00;;;;;;;26.56;24.66;99368.97;6214208;23;19993;-72
2024/02/12 10:30:01;;;;;;;0.00;0.00;;;;;;;27.53;24.19;99379.25;6208621;23;20394;-72
2024/02/12 10:32:39;;;;;;;0.00;0.00;;;;;;;29.00;23.77;99349.34;6211186;23;20078;-73
2024/02/12 10:35:11;;;;;;;0.00;0.00;;;;;;;31.31;22.38;99368.53;6210751;23;20011;-72
2024/02/12 10:37:37;;;;;;;0.00;0.00;;;;;;;32.23;20.08;99360.53;6213016;23;20005;-72
2024/02/12 10:40:12;;;;;;;0.00;0.00;;;;;;;31.45;19.85;99378.75;6182875;23;20091;-72
2024/02/12 10:42:49;;;;;;;0.00;0.00;;;;;;;31.41;19.52;99387.28;6189526;23;20011;-72
2024/02/12 10:45:16;;;;;;;0.00;0.00;;;;;;;31.07;19.41;99368.56;6209092;23;20009;-73
2024/02/12 10:47:42;;;;;;;0.00;0.00;;;;;;;31.38;18.70;99382.53;6212440;23;20000;-72
2024/02/12 10:50:08;;;;;;;0.00;0.00;;;;;;;30.25;19.22;99384.81;6210736;23;20004;-73
2024/02/12 10:52:41;;;;;;;0.00;0.00;;;;;;;29.48;19.62;99380.59;6185289;23;19996;-72
2024/02/12 10:55:09;;;;;;;0.00;0.00;;;;;;;29.64;19.93;99377.19;6179946;23;20009;-71
2024/02/12 10:57:39;;;;;;;0.00;0.00;;;;;;;30.88;19.90;99395.50;6213752;23;20011;-72
2024/02/12 11:00:05;;;;;;;0.00;0.00;;;;;;;32.24;17.64;99413.03;6158238;23;20008;-72
2024/02/12 11:02:44;;;;;;;0.00;0.00;;;;;;;31.36;18.31;99373.66;6209047;23;20009;-75
2024/02/12 11:05:15;;;;;;;0.00;0.00;;;;;;;30.63;17.60;99396.72;6212726;23;20010;-73
2024/02/12 11:08:12;;;;;;;0.00;0.00;;;;;;;28.15;19.62;99410.66;6183013;23;20063;-71
2024/02/12 11:10:43;;;;;;;0.00;0.00;;;;;;;28.09;19.73;99401.06;6181795;23;20024;-72
2024/02/12 11:16:17;;;;;;;0.00;0.00;;;;;;;30.43;18.78;99393.03;6118261;23;20013;-72
2024/02/12 11:22:47;;;;;;;0.00;0.00;;;;;;;31.02;17.88;99396.53;5977105;24;20027;-73
2024/02/12 11:25:17;;;;;;;0.00;0.00;;;;;;;32.31;17.35;99424.19;5980146;23;20019;-72
2024/02/12 11:27:58;;;;;;;0.00;0.00;;;;;;;33.80;17.34;99428.44;6136563;23;20016;-72
2024/02/12 11:30:26;;;;;;;0.00;0.00;;;;;;;34.65;15.42;99425.47;6178903;23;20005;-72
2024/02/12 11:32:56;;;;;;;0.00;0.00;;;;;;;33.96;15.88;99429.63;6183074;23;20427;-72
2024/02/12 11:35:21;;;;;;;0.00;0.00;;;;;;;33.19;16.27;99425.25;6211765;23;19996;-72
2024/02/12 11:37:59;;;;;;;0.00;0.00;;;;;;;32.01;16.56;99429.66;6210186;23;20009;-72
2024/02/12 11:40:25;;;;;;;0.00;0.00;;;;;;;31.49;16.74;99421.84;6184043;23;20458;-71
2024/02/12 11:42:55;;;;;;;0.00;0.00;;;;;;;30.60;17.59;99425.00;6161197;23;20004;-72
2024/02/12 11:46:10;;;;;;;;;;;;;;;;;;;;;
2024/02/12 11:52:15;;;;;;;;;;;;;;;;;;;;;
2024/02/12 11:55:18;;;;;;;;;;;;;;;;;;;;;
2024/02/12 11:57:48;;;;;;;0.00;0.00;;;;;;;31.74;17.30;99432.66;6051391;23;20078;-71
2024/02/12 12:00:17;;;;;;;0.00;0.00;;;;;;;31.19;17.00;99451.03;6207033;23;20323;-73
2024/02/12 12:02:46;;;;;;;0.00;0.00;;;;;;;31.36;17.87;99430.16;6209152;23;19997;-71
2024/02/12 12:05:14;;;;;;;0.00;0.00;;;;;;;30.87;17.18;99444.72;6211719;23;20043;-72
2024/02/12 12:07:47;;;;;;;0.00;0.00;;;;;;;31.92;17.20;99454.09;6208747;23;20005;-72
2024/02/12 12:10:28;;;;;;;0.00;0.00;;;;;;;32.54;16.82;99443.81;6214470;23;20020;-73
2024/02/12 12:13:14;;;;;;;0.00;0.00;;;;;;;33.66;16.84;99463.66;6208520;23;20001;-73